Time;durP1;ratioP1;P1;durP2;ratioP2;P2;SDS_P1;SDS_P2;PMS_P1;PMS_P2;Temp;Humidity;BMP_temperature;BMP_pressure;BME280_temperature;BME280_humidity;BME280_pressure;Samples;Min_cycle;Max_cycle;Signal;HPM_P1;HPM_P2
2021/12/05 00:22:13;;;;;;;8.48;4.68;;;-5.30;99.90;;;;;;4831755;29;20878;-85
2021/12/05 00:24:46;;;;;;;8.00;4.40;;;-5.30;99.90;;;;;;4841071;29;20888;-85
2021/12/05 00:27:18;;;;;;;9.18;4.85;;;-5.30;99.90;;;;;;4841499;29;20410;-84
2021/12/05 00:38:01;;;;;;;7.93;3.90;;;-5.50;99.90;;;;;;4855396;29;20411;-85
2021/12/05 00:46:18;;;;;;;5.82;3.58;;;-5.40;99.90;;;;;;4840752;29;20443;-85
2021/12/05 00:49:16;;;;;;;9.23;4.65;;;-5.50;99.90;;;;;;4841118;29;20437;-85
2021/12/05 01:00:39;;;;;;;6.15;3.63;;;-5.40;99.90;;;;;;4841128;29;20490;-85
2021/12/05 01:06:01;;;;;;;10.05;4.35;;;-5.40;99.90;;;;;;4840846;29;20694;-85
2021/12/05 01:16:33;;;;;;;8.60;4.38;;;-5.40;99.90;;;;;;4832680;29;20818;-85
2021/12/05 01:19:07;;;;;;;7.68;3.83;;;-5.30;99.90;;;;;;4839783;29;20421;-84
2021/12/05 01:21:39;;;;;;;7.90;3.95;;;-5.50;99.90;;;;;;4839659;29;20751;-85
2021/12/05 01:27:42;;;;;;;7.78;4.40;;;-5.50;99.90;;;;;;4854810;29;20415;-85
2021/12/05 01:29:52;;;;;;;7.85;4.50;;;-5.50;99.90;;;;;;4830202;29;20414;-85
2021/12/05 02:07:59;;;;;;;7.25;4.05;;;-5.70;99.90;;;;;;4841989;29;20864;-84
2021/12/05 02:16:21;;;;;;;6.15;3.53;;;-5.70;99.90;;;;;;4843291;29;20769;-84
2021/12/05 02:43:33;;;;;;;8.02;4.05;;;-5.60;99.90;;;;;;4842915;29;20402;-83
2021/12/05 02:46:03;;;;;;;7.38;3.50;;;-5.70;99.90;;;;;;4842138;29;20406;-84
2021/12/05 02:48:34;;;;;;;7.65;4.03;;;-5.70;99.90;;;;;;4823731;29;20449;-84
2021/12/05 02:51:10;;;;;;;6.38;3.53;;;-5.70;99.90;;;;;;4823234;29;20408;-85
2021/12/05 02:53:48;;;;;;;6.40;3.35;;;-5.70;99.90;;;;;;4838400;29;20688;-84
2021/12/05 02:56:19;;;;;;;8.23;4.03;;;-5.70;99.90;;;;;;4838429;29;20898;-85
2021/12/05 02:58:53;;;;;;;5.55;3.00;;;-5.70;99.90;;;;;;4838340;29;20404;-85
2021/12/05 03:01:36;;;;;;;8.25;4.40;;;-5.90;99.90;;;;;;4823384;29;20408;-85
2021/12/05 03:04:06;;;;;;;7.67;4.07;;;-5.80;99.90;;;;;;4824203;29;20419;-85
2021/12/05 03:06:34;;;;;;;7.17;3.70;;;-5.80;99.90;;;;;;4822697;29;20930;-84
2021/12/05 03:09:08;;;;;;;7.43;3.58;;;-5.70;99.90;;;;;;4824212;29;20491;-84
2021/12/05 03:11:36;;;;;;;7.35;3.83;;;-5.90;99.90;;;;;;4827268;29;20430;-83
2021/12/05 03:14:06;;;;;;;7.63;3.78;;;-5.90;99.90;;;;;;4838889;29;20434;-85
2021/12/05 03:16:35;;;;;;;7.53;3.75;;;-5.80;99.90;;;;;;4841204;29;20706;-84
2021/12/05 03:19:04;;;;;;;7.80;3.60;;;-5.80;99.90;;;;;;4841045;29;20418;-85
2021/12/05 03:21:35;;;;;;;8.27;3.95;;;-5.70;99.90;;;;;;4840987;29;20422;-84
2021/12/05 03:24:04;;;;;;;6.57;3.55;;;-5.80;99.90;;;;;;4842066;29;20410;-85
2021/12/05 03:26:36;;;;;;;7.40;3.60;;;-5.80;99.90;;;;;;4841066;29;20407;-85
2021/12/05 03:29:06;;;;;;;6.80;2.88;;;-5.80;99.90;;;;;;4842073;29;20402;-84
2021/12/05 03:31:35;;;;;;;6.78;3.22;;;-5.90;99.90;;;;;;4840981;29;20409;-84
2021/12/05 03:34:05;;;;;;;8.05;4.00;;;-5.90;99.90;;;;;;4840624;29;20417;-85
2021/12/05 03:36:34;;;;;;;6.88;3.70;;;-5.80;99.90;;;;;;4841076;29;20811;-85
2021/12/05 03:39:07;;;;;;;6.60;3.40;;;-5.70;99.90;;;;;;4840627;29;20893;-85
2021/12/05 03:41:35;;;;;;;8.00;3.72;;;-5.70;99.90;;;;;;4841933;29;20399;-84
2021/12/05 03:44:05;;;;;;;7.63;3.88;;;-5.80;99.90;;;;;;4841635;29;20402;-85
2021/12/05 03:46:34;;;;;;;7.53;3.70;;;-5.80;99.90;;;;;;4840607;29;20486;-85
2021/12/05 03:49:08;;;;;;;5.95;3.13;;;-5.80;99.90;;;;;;4840430;29;20411;-84
2021/12/05 03:51:39;;;;;;;10.43;4.25;;;-5.80;99.90;;;;;;4840835;29;20416;-85
2021/12/05 03:54:09;;;;;;;8.38;4.53;;;-5.70;99.90;;;;;;4840295;29;20410;-84
2021/12/05 03:56:38;;;;;;;8.75;3.50;;;-5.70;99.90;;;;;;4855435;29;20420;-84
2021/12/05 03:59:08;;;;;;;7.72;3.58;;;-5.70;99.90;;;;;;4841220;29;20406;-85
2021/12/05 04:01:37;;;;;;;7.00;3.55;;;-5.80;99.90;;;;;;4837565;29;20465;-84
2021/12/05 04:04:07;;;;;;;6.07;3.22;;;-5.80;99.90;;;;;;4822168;29;20419;-86
2021/12/05 04:06:36;;;;;;;7.07;3.33;;;-5.80;99.90;;;;;;4822258;29;20412;-84
2021/12/05 04:09:08;;;;;;;8.70;3.85;;;-5.90;99.90;;;;;;4822586;29;20446;-84
2021/12/05 04:11:41;;;;;;;7.40;3.92;;;-5.80;99.90;;;;;;4822268;29;20970;-84
2021/12/05 04:14:11;;;;;;;7.88;3.83;;;-5.80;99.90;;;;;;4821918;29;20967;-84
2021/12/05 04:16:42;;;;;;;6.82;3.80;;;-5.90;99.90;;;;;;4821960;29;20419;-84
2021/12/05 04:19:11;;;;;;;5.87;3.40;;;-5.70;99.90;;;;;;4822106;29;20465;-85
2021/12/05 04:21:39;;;;;;;7.80;3.47;;;-5.70;99.90;;;;;;4822262;29;20499;-84
2021/12/05 04:24:11;;;;;;;7.78;3.58;;;-5.80;99.90;;;;;;4807219;29;20420;-85
2021/12/05 04:26:40;;;;;;;7.50;3.08;;;-5.80;99.90;;;;;;4837201;29;20876;-84
2021/12/05 04:29:09;;;;;;;6.30;3.03;;;-5.90;99.90;;;;;;4836935;29;20411;-84
2021/12/05 04:31:39;;;;;;;9.40;3.63;;;-6.00;99.90;;;;;;4823074;29;20817;-84
2021/12/05 04:34:07;;;;;;;7.65;3.80;;;-5.90;99.90;;;;;;4822041;29;20453;-84
2021/12/05 04:36:35;;;;;;;6.47;3.70;;;-5.90;99.90;;;;;;4821669;29;20412;-85
2021/12/05 04:39:05;;;;;;;8.23;4.00;;;-5.90;99.90;;;;;;4821869;29;20900;-83
2021/12/05 04:41:33;;;;;;;6.93;3.53;;;-5.90;99.90;;;;;;4822172;29;20416;-84
2021/12/05 04:44:01;;;;;;;6.63;3.53;;;-5.90;99.90;;;;;;4823009;29;20483;-85
2021/12/05 04:46:30;;;;;;;5.80;3.20;;;-6.00;99.90;;;;;;4821704;29;20405;-84
2021/12/05 04:49:00;;;;;;;6.95;3.65;;;-6.00;99.90;;;;;;4821729;29;20473;-85
2021/12/05 04:51:34;;;;;;;5.88;3.35;;;-5.90;99.90;;;;;;4837149;29;20467;-85
2021/12/05 04:54:03;;;;;;;6.22;3.25;;;-5.90;99.90;;;;;;4821602;29;20418;-85
2021/12/05 04:56:32;;;;;;;6.60;3.65;;;-5.90;99.90;;;;;;4807087;29;20412;-86
2021/12/05 04:59:04;;;;;;;4.90;2.90;;;-6.00;99.90;;;;;;4821851;29;20404;-85
2021/12/05 05:01:32;;;;;;;8.05;3.90;;;-6.00;99.90;;;;;;4837134;29;20404;-85
2021/12/05 05:04:03;;;;;;;7.80;3.80;;;-6.00;99.90;;;;;;4822925;29;20400;-84
2021/12/05 05:06:31;;;;;;;5.63;3.42;;;-5.80;99.90;;;;;;4822610;29;20403;-84
2021/12/05 05:08:58;;;;;;;5.80;3.08;;;-5.80;99.90;;;;;;4824217;29;20407;-84
2021/12/05 05:11:26;;;;;;;6.63;3.40;;;-5.70;99.90;;;;;;4826225;29;20408;-84
2021/12/05 05:13:54;;;;;;;5.28;3.10;;;-5.80;99.90;;;;;;4825974;29;20826;-84
2021/12/05 05:16:25;;;;;;;6.23;3.43;;;-5.80;99.90;;;;;;4825890;29;20419;-85
2021/12/05 05:18:57;;;;;;;5.22;3.13;;;-5.70;99.90;;;;;;4826172;29;20400;-84
2021/12/05 05:50:39;;;;;;;6.00;3.38;;;-5.90;99.90;;;;;;4825914;29;20476;-84
2021/12/05 05:53:07;;;;;;;6.60;3.05;;;-6.00;99.90;;;;;;4825485;29;20416;-84
2021/12/05 05:55:36;;;;;;;7.25;3.47;;;-6.10;99.90;;;;;;4825183;29;20498;-84
2021/12/05 05:58:12;;;;;;;6.03;3.30;;;-6.10;99.90;;;;;;4825319;29;20412;-83
2021/12/05 06:00:53;;;;;;;5.40;3.03;;;-6.10;99.90;;;;;;4825306;29;20415;-85
2021/12/05 06:03:21;;;;;;;4.90;2.77;;;-6.20;99.90;;;;;;4825360;29;20412;-84
2021/12/05 06:05:56;;;;;;;6.50;3.40;;;-6.20;99.90;;;;;;4825118;29;20468;-85
2021/12/05 06:08:27;;;;;;;5.80;3.22;;;-6.00;99.90;;;;;;4825078;29;20420;-84
2021/12/05 06:10:59;;;;;;;4.95;2.88;;;-6.00;99.90;;;;;;4823971;29;20415;-85
2021/12/05 06:13:29;;;;;;;6.57;3.30;;;-6.10;99.90;;;;;;4825278;29;20412;-85
2021/12/05 06:15:57;;;;;;;5.17;2.90;;;-6.20;99.90;;;;;;4825262;29;20424;-85
2021/12/05 06:18:26;;;;;;;6.18;3.28;;;-6.20;99.90;;;;;;4825066;29;20838;-85
2021/12/05 06:20:54;;;;;;;4.95;3.00;;;-6.20;99.90;;;;;;4822982;29;20404;-83
2021/12/05 06:23:22;;;;;;;6.38;3.50;;;-6.20;99.90;;;;;;4825146;29;20829;-84
2021/12/05 06:25:51;;;;;;;6.47;3.17;;;-6.30;99.90;;;;;;4824884;29;20468;-85
2021/12/05 06:28:27;;;;;;;5.13;3.00;;;-6.20;99.90;;;;;;4825008;29;20771;-84
2021/12/05 06:31:12;;;;;;;5.05;2.90;;;-6.20;99.90;;;;;;4824753;29;20423;-84
2021/12/05 06:39:26;;;;;;;6.20;3.63;;;-6.10;99.90;;;;;;4824753;29;20843;-84
2021/12/05 06:47:15;;;;;;;6.70;3.65;;;-6.30;99.90;;;;;;4841795;29;20418;-85
2021/12/05 06:49:44;;;;;;;7.13;3.95;;;-6.40;99.90;;;;;;4841927;29;20446;-85
2021/12/05 06:52:32;;;;;;;8.02;3.60;;;-6.30;99.90;;;;;;4842751;29;20491;-84
2021/12/05 06:55:00;;;;;;;8.32;3.55;;;-6.30;99.90;;;;;;4840987;29;20434;-84
2021/12/05 06:57:27;;;;;;;7.15;3.70;;;-6.40;99.90;;;;;;4854590;29;20518;-85
2021/12/05 06:59:55;;;;;;;6.20;3.17;;;-6.40;99.90;;;;;;4842756;29;20410;-85
2021/12/05 07:02:23;;;;;;;6.95;3.80;;;-6.40;99.90;;;;;;4826263;29;20418;-84
2021/12/05 07:07:37;;;;;;;6.50;3.70;;;-6.40;99.90;;;;;;4853795;29;20432;-85
2021/12/05 07:10:08;;;;;;;7.85;4.10;;;-6.50;99.90;;;;;;4838378;29;20404;-85
2021/12/05 07:15:15;;;;;;;9.80;4.60;;;-6.40;99.90;;;;;;4842585;29;20450;-85
2021/12/05 07:23:45;;;;;;;7.57;3.97;;;-6.60;99.90;;;;;;4840076;29;20422;-85
2021/12/05 07:26:11;;;;;;;12.95;5.25;;;-6.60;99.90;;;;;;4838954;29;20422;-84
2021/12/05 07:42:38;;;;;;;8.30;4.22;;;-6.50;99.90;;;;;;4855978;29;20466;-84
2021/12/05 07:45:07;;;;;;;7.18;3.80;;;-6.50;99.90;;;;;;4840503;29;20905;-84
2021/12/05 07:47:38;;;;;;;5.63;3.05;;;-6.50;99.90;;;;;;4825678;29;20414;-84
2021/12/05 07:50:09;;;;;;;6.32;3.30;;;-6.50;99.90;;;;;;4831248;29;21001;-82
2021/12/05 07:52:42;;;;;;;6.93;3.83;;;-6.60;99.90;;;;;;4833795;29;20499;-84
2021/12/05 07:55:26;;;;;;;6.05;3.33;;;-6.60;99.90;;;;;;4823498;29;20952;-84
2021/12/05 07:58:14;;;;;;;5.85;2.95;;;-6.70;99.90;;;;;;4837215;29;20412;-84
2021/12/05 08:00:55;;;;;;;6.97;3.22;;;-6.60;99.90;;;;;;4822171;29;20764;-84
2021/12/05 08:16:56;;;;;;;5.10;3.40;;;-6.70;99.90;;;;;;4841277;29;20419;-83
2021/12/05 08:19:23;;;;;;;6.32;3.42;;;-6.80;99.90;;;;;;4841517;29;20463;-83
2021/12/05 08:21:55;;;;;;;7.78;4.13;;;-6.80;99.90;;;;;;4841386;29;20785;-84
2021/12/05 08:24:31;;;;;;;8.35;4.20;;;-6.70;99.90;;;;;;4840729;29;20426;-85
2021/12/05 08:27:00;;;;;;;6.80;3.40;;;-6.60;99.90;;;;;;4840335;29;20417;-84
2021/12/05 08:29:35;;;;;;;6.47;3.43;;;-6.70;99.90;;;;;;4840350;29;20425;-85
2021/12/05 08:32:34;;;;;;;6.50;3.25;;;-6.60;99.90;;;;;;4841103;29;20402;-84
2021/12/05 08:35:19;;;;;;;8.43;3.90;;;-6.70;99.90;;;;;;4841048;29;20485;-83
2021/12/05 08:43:37;;;;;;;6.87;3.90;;;-6.60;99.90;;;;;;4842135;29;20402;-84
2021/12/05 09:28:19;;;;;;;5.72;3.10;;;-6.80;99.90;;;;;;4846917;29;20410;-85
2021/12/05 10:03:10;;;;;;;7.50;3.55;;;-6.60;99.90;;;;;;4843892;29;20878;-86
2021/12/05 10:09:00;;;;;;;5.43;2.75;;;-6.50;99.90;;;;;;4804817;29;20422;-85
2021/12/05 10:11:44;;;;;;;6.22;3.17;;;-6.60;99.90;;;;;;4836742;29;20411;-83
2021/12/05 10:14:30;;;;;;;6.13;3.25;;;-6.60;99.90;;;;;;4825040;29;20404;-85
2021/12/05 10:35:22;;;;;;;6.93;3.33;;;-6.90;99.90;;;;;;4804974;29;20495;-85
2021/12/05 10:37:47;;;;;;;5.60;3.00;;;-6.80;99.90;;;;;;4804116;29;20432;-83
2021/12/05 10:40:33;;;;;;;6.07;3.33;;;-6.80;99.90;;;;;;4840282;29;20415;-84
2021/12/05 10:43:02;;;;;;;6.63;3.00;;;-6.90;99.90;;;;;;4843015;29;20402;-84
2021/12/05 10:45:35;;;;;;;4.55;2.33;;;-6.90;99.90;;;;;;4843052;29;20407;-84
2021/12/05 10:48:10;;;;;;;5.68;2.90;;;-7.00;99.90;;;;;;4841685;29;20418;-84
2021/12/05 10:50:45;;;;;;;6.82;3.10;;;-7.00;99.90;;;;;;4842900;29;20399;-84
2021/12/05 10:53:28;;;;;;;5.85;3.00;;;-7.10;99.90;;;;;;4842808;29;20420;-84
2021/12/05 10:56:04;;;;;;;5.30;2.47;;;-7.00;99.90;;;;;;4856703;29;20408;-83
2021/12/05 10:58:37;;;;;;;6.20;2.70;;;-7.00;99.90;;;;;;4842686;29;20430;-84
2021/12/05 11:01:19;;;;;;;5.43;2.97;;;-6.90;99.90;;;;;;4842606;29;20402;-84
2021/12/05 11:03:50;;;;;;;4.97;2.60;;;-7.00;99.90;;;;;;4842527;29;20439;-83
2021/12/05 11:06:19;;;;;;;5.43;2.53;;;-7.00;99.90;;;;;;4842115;29;20514;-83
2021/12/05 11:08:51;;;;;;;4.53;2.75;;;-7.20;99.90;;;;;;4839832;29;20920;-83
2021/12/05 11:11:18;;;;;;;5.35;2.50;;;-7.20;99.90;;;;;;4842367;29;20407;-84
2021/12/05 11:13:47;;;;;;;5.03;3.00;;;-7.40;99.90;;;;;;4842503;29;20834;-84
2021/12/05 11:16:33;;;;;;;4.93;2.70;;;-7.40;99.90;;;;;;4841387;29;20479;-83
2021/12/05 11:19:07;;;;;;;5.70;2.45;;;-7.50;99.90;;;;;;4842324;29;20430;-84
2021/12/05 11:21:45;;;;;;;5.20;2.80;;;-7.50;99.90;;;;;;4856968;29;20419;-83
2021/12/05 11:24:16;;;;;;;4.27;2.67;;;-7.40;99.90;;;;;;4842056;29;20913;-83
2021/12/05 11:27:02;;;;;;;5.78;2.70;;;-7.60;99.90;;;;;;4842106;29;20418;-83
2021/12/05 11:29:44;;;;;;;5.35;3.03;;;-7.50;99.90;;;;;;4842042;29;20451;-83
2021/12/05 11:32:24;;;;;;;4.97;2.70;;;-7.50;99.90;;;;;;4842115;29;20510;-84
2021/12/05 11:34:51;;;;;;;5.07;2.70;;;-7.50;99.90;;;;;;4856185;29;20438;-84
2021/12/05 11:37:19;;;;;;;4.95;2.40;;;-7.50;99.90;;;;;;4841873;29;20421;-84
2021/12/05 11:39:48;;;;;;;5.60;2.60;;;-7.60;99.90;;;;;;4842195;29;20407;-84
2021/12/05 11:42:20;;;;;;;5.25;2.90;;;-7.70;99.90;;;;;;4841788;29;20409;-83
2021/12/05 11:44:54;;;;;;;6.15;2.53;;;-7.60;99.90;;;;;;4841851;29;20510;-84
2021/12/05 11:47:24;;;;;;;5.43;2.75;;;-7.70;99.90;;;;;;4841865;29;20445;-83
2021/12/05 11:49:51;;;;;;;6.10;2.50;;;-7.80;99.90;;;;;;4841780;29;20465;-83
2021/12/05 11:52:24;;;;;;;5.88;3.00;;;-7.90;99.90;;;;;;4841764;29;20416;-83
2021/12/05 11:54:52;;;;;;;5.23;2.90;;;-7.80;99.90;;;;;;4841670;29;20506;-84
2021/12/05 11:57:24;;;;;;;4.78;2.60;;;-7.70;99.90;;;;;;4841624;29;20454;-83
2021/12/05 11:59:55;;;;;;;5.35;2.63;;;-7.80;99.90;;;;;;4841689;29;20951;-84
2021/12/05 12:02:34;;;;;;;5.43;2.90;;;-8.00;99.90;;;;;;4840413;29;20414;-83
2021/12/05 12:05:13;;;;;;;7.35;3.15;;;-8.10;99.90;;;;;;4840237;29;20627;-83
2021/12/05 12:07:53;;;;;;;10.35;2.58;;;-7.90;99.90;;;;;;4823212;29;20424;-83
2021/12/05 12:10:34;;;;;;;14.35;6.53;;;-7.80;99.90;;;;;;4823360;29;20449;-83
2021/12/05 12:13:29;;;;;;;4.70;2.55;;;-7.70;99.90;;;;;;4822048;29;20447;-84
2021/12/05 12:16:00;;;;;;;4.60;2.60;;;-7.70;99.90;;;;;;4824409;29;20425;-84
2021/12/05 12:18:32;;;;;;;6.78;3.35;;;-7.70;99.90;;;;;;4839744;29;20881;-83
2021/12/05 12:21:06;;;;;;;5.28;2.90;;;-7.80;99.90;;;;;;4853932;29;20402;-83
2021/12/05 12:23:34;;;;;;;5.27;3.37;;;-7.80;99.90;;;;;;4839910;29;20421;-83
2021/12/05 12:26:06;;;;;;;5.30;2.53;;;-7.80;99.90;;;;;;4839915;29;20441;-84
2021/12/05 12:28:34;;;;;;;5.38;3.00;;;-7.90;99.90;;;;;;4841257;29;20874;-84
2021/12/05 12:31:06;;;;;;;5.60;3.03;;;-7.80;99.90;;;;;;4841163;29;20484;-82
2021/12/05 12:33:47;;;;;;;5.80;2.83;;;-7.90;99.90;;;;;;4841438;29;20434;-84
2021/12/05 12:36:15;;;;;;;5.60;2.83;;;-7.90;99.90;;;;;;4839843;29;20416;-85
2021/12/05 12:38:45;;;;;;;6.85;2.90;;;-7.90;99.90;;;;;;4841088;29;20422;-83
2021/12/05 12:41:23;;;;;;;6.33;3.40;;;-7.90;99.90;;;;;;4834272;29;21000;-84
2021/12/05 12:44:04;;;;;;;5.93;3.30;;;-7.90;99.90;;;;;;4835404;29;20456;-84
2021/12/05 12:46:33;;;;;;;6.95;3.65;;;-7.90;99.90;;;;;;4840799;29;20525;-84
2021/12/05 12:49:22;;;;;;;5.13;2.70;;;-7.80;99.90;;;;;;4827487;29;20450;-84
2021/12/05 12:51:59;;;;;;;7.23;3.43;;;-8.00;99.90;;;;;;4822796;29;20485;-83
2021/12/05 12:54:56;;;;;;;5.68;2.97;;;-8.10;99.90;;;;;;4822561;29;20408;-84
2021/12/05 12:57:34;;;;;;;7.57;3.83;;;-7.90;99.90;;;;;;4830604;29;20860;-84
2021/12/05 13:00:12;;;;;;;8.55;3.72;;;-7.90;99.90;;;;;;4854984;29;20513;-84
2021/12/05 13:11:19;;;;;;;5.03;2.60;;;-8.20;99.90;;;;;;4835303;29;20402;-83
2021/12/05 13:14:02;;;;;;;5.80;3.05;;;-8.40;99.90;;;;;;4839881;29;20478;-83
2021/12/05 13:16:36;;;;;;;5.38;3.00;;;-8.50;99.90;;;;;;4840826;29;20478;-83
2021/12/05 13:19:22;;;;;;;7.00;2.92;;;-8.50;99.90;;;;;;4839707;29;20443;-83
2021/12/05 13:22:03;;;;;;;6.28;3.00;;;-8.60;99.90;;;;;;4840917;29;20490;-83
2021/12/05 13:24:41;;;;;;;10.48;4.25;;;-8.70;99.90;;;;;;4840496;29;20486;-83
2021/12/05 13:27:29;;;;;;;13.70;5.88;;;-8.60;99.90;;;;;;4839475;29;20481;-83
2021/12/05 13:29:57;;;;;;;9.82;4.78;;;-8.50;99.90;;;;;;4842158;29;20466;-83
2021/12/05 13:32:31;;;;;;;6.18;3.13;;;-8.70;99.90;;;;;;4844029;29;20406;-84
2021/12/05 13:35:07;;;;;;;9.23;4.10;;;-8.90;99.90;;;;;;4844044;29;20893;-83
2021/12/05 13:37:47;;;;;;;13.35;6.35;;;-8.80;99.90;;;;;;4844053;29;20902;-82
2021/12/05 13:40:22;;;;;;;13.50;6.38;;;-8.80;99.90;;;;;;4843987;29;20566;-83
2021/12/05 13:43:03;;;;;;;19.40;11.20;;;-8.70;99.90;;;;;;4843846;29;20403;-82
2021/12/05 13:45:37;;;;;;;6.45;3.10;;;-8.70;99.90;;;;;;4843862;29;20402;-83
2021/12/05 13:48:10;;;;;;;7.32;3.60;;;-9.00;99.90;;;;;;4843776;29;20485;-84
2021/12/05 13:50:45;;;;;;;6.47;3.45;;;-8.90;99.90;;;;;;4843880;29;20489;-82
2021/12/05 13:53:13;;;;;;;9.63;5.03;;;-8.70;99.90;;;;;;4842670;29;20418;-84
2021/12/05 13:56:26;;;;;;;8.93;4.63;;;-8.50;99.90;;;;;;4843539;29;20403;-83
2021/12/05 13:58:48;;;;;;;23.67;18.50;;;-8.70;99.90;;;;;;4842608;29;20515;-83
2021/12/05 14:01:43;;;;;;;9.27;5.57;;;-8.80;99.90;;;;;;4843434;29;20466;-83
2021/12/05 14:04:11;;;;;;;8.80;4.33;;;-8.90;99.90;;;;;;4843444;29;20467;-83
2021/12/05 14:06:43;;;;;;;12.90;8.32;;;-8.80;99.90;;;;;;4843562;29;20972;-83
2021/12/05 14:09:17;;;;;;;8.80;4.25;;;-9.00;99.90;;;;;;4843406;29;20877;-83
2021/12/05 14:11:52;;;;;;;8.00;3.80;;;-8.90;99.90;;;;;;4843056;29;20410;-83
2021/12/05 14:14:24;;;;;;;9.10;4.25;;;-9.00;99.90;;;;;;4843267;29;20417;-83
2021/12/05 14:16:54;;;;;;;9.17;3.63;;;-9.00;99.90;;;;;;4843104;29;20426;-82
2021/12/05 14:19:26;;;;;;;13.82;6.70;;;-9.20;99.90;;;;;;4843575;29;20394;-82
2021/12/05 14:21:56;;;;;;;17.35;13.20;;;-9.20;99.90;;;;;;4843269;29;20398;-83
2021/12/05 14:24:27;;;;;;;12.17;7.53;;;-9.20;99.90;;;;;;4843342;29;20398;-82
2021/12/05 14:26:58;;;;;;;11.13;4.70;;;-9.20;99.90;;;;;;4843196;29;20406;-84
2021/12/05 14:29:29;;;;;;;7.03;3.30;;;-9.00;99.90;;;;;;4842041;29;20411;-83
2021/12/05 14:32:10;;;;;;;11.80;4.28;;;-9.20;99.90;;;;;;4842086;29;20415;-83
2021/12/05 14:34:39;;;;;;;9.02;3.97;;;-9.40;99.90;;;;;;4856991;29;20897;-84
2021/12/05 14:37:14;;;;;;;6.47;2.70;;;-9.40;99.90;;;;;;4842895;29;20790;-84
2021/12/05 14:39:45;;;;;;;8.13;3.50;;;-9.60;99.90;;;;;;4842872;29;20402;-83
2021/12/05 14:42:18;;;;;;;10.70;4.50;;;-9.60;99.90;;;;;;4842485;29;20446;-82
2021/12/05 14:44:54;;;;;;;8.65;4.03;;;-9.40;99.90;;;;;;4842789;29;20407;-83
2021/12/05 14:47:25;;;;;;;6.72;3.00;;;-9.40;99.90;;;;;;4842792;29;20417;-82
2021/12/05 14:49:57;;;;;;;5.70;2.72;;;-9.50;99.90;;;;;;4841733;29;20932;-83
2021/12/05 14:52:36;;;;;;;6.75;3.10;;;-9.60;99.90;;;;;;4842826;29;20459;-82
2021/12/05 14:55:07;;;;;;;6.03;3.00;;;-9.50;99.90;;;;;;4842494;29;20882;-83
2021/12/05 14:57:45;;;;;;;8.88;6.05;;;-9.50;99.90;;;;;;4842502;29;20422;-83
2021/12/05 15:00:19;;;;;;;11.02;5.88;;;-9.60;99.90;;;;;;4842497;29;20938;-83
2021/12/05 15:02:47;;;;;;;8.65;4.00;;;-9.30;99.90;;;;;;4842572;29;20449;-84
2021/12/05 15:05:18;;;;;;;7.00;2.88;;;-9.20;99.90;;;;;;4839871;29;20414;-83
2021/12/05 15:07:46;;;;;;;7.38;2.97;;;-9.20;99.90;;;;;;4842114;29;20414;-83
2021/12/05 15:10:20;;;;;;;7.65;3.30;;;-9.40;99.90;;;;;;4841420;29;20936;-83
2021/12/05 15:12:53;;;;;;;9.50;5.00;;;-9.50;99.90;;;;;;4840881;29;20440;-82
2021/12/05 15:15:23;;;;;;;7.65;3.30;;;-9.50;99.90;;;;;;4839358;29;20419;-84
2021/12/05 15:17:54;;;;;;;8.23;3.28;;;-9.80;99.90;;;;;;4842196;29;20978;-83
2021/12/05 15:20:26;;;;;;;8.63;4.80;;;-9.60;99.90;;;;;;4839174;29;20455;-82
2021/12/05 15:23:00;;;;;;;13.80;7.47;;;-9.70;99.90;;;;;;4834711;29;20459;-82
2021/12/05 15:25:29;;;;;;;20.88;14.02;;;-9.50;99.90;;;;;;4832055;29;20426;-83
2021/12/05 15:27:57;;;;;;;20.42;18.00;;;-9.50;99.90;;;;;;4834645;29;20414;-83
2021/12/05 15:30:35;;;;;;;9.18;5.10;;;-9.50;99.90;;;;;;4841878;29;20417;-82
2021/12/05 15:33:06;;;;;;;8.52;3.50;;;-9.50;99.90;;;;;;4840695;29;20448;-83
2021/12/05 15:35:34;;;;;;;7.43;3.40;;;-9.60;99.90;;;;;;4841848;29;20406;-82
2021/12/05 15:38:14;;;;;;;9.32;4.20;;;-9.80;99.90;;;;;;4839821;29;20430;-83
2021/12/05 15:40:48;;;;;;;9.90;4.47;;;-9.80;99.90;;;;;;4851836;29;20921;-82
2021/12/05 15:43:19;;;;;;;10.52;4.47;;;-9.70;99.90;;;;;;4841613;29;20769;-82
2021/12/05 15:45:50;;;;;;;7.65;3.53;;;-9.70;99.90;;;;;;4855915;29;20940;-83
2021/12/05 15:48:22;;;;;;;8.43;3.65;;;-9.90;99.90;;;;;;4840608;29;20415;-83
2021/12/05 15:50:51;;;;;;;9.25;4.32;;;-9.70;99.90;;;;;;4841927;29;20973;-82
2021/12/05 15:53:21;;;;;;;11.20;5.75;;;-9.90;99.90;;;;;;4840705;29;20415;-83
2021/12/05 15:55:57;;;;;;;11.07;5.28;;;-9.90;99.90;;;;;;4841506;29;20410;-83
2021/12/05 15:58:32;;;;;;;9.02;4.32;;;-9.80;99.90;;;;;;4827663;29;20422;-83
2021/12/05 16:01:07;;;;;;;8.48;3.95;;;-9.90;99.90;;;;;;4841407;29;20410;-83
2021/12/05 16:04:04;;;;;;;8.95;4.00;;;-10.00;99.90;;;;;;4841377;29;20459;-83
2021/12/05 16:06:32;;;;;;;10.80;4.78;;;-10.20;99.90;;;;;;4838514;29;20455;-83
2021/12/05 16:09:20;;;;;;;9.73;4.53;;;-10.20;99.90;;;;;;4823287;29;20407;-84
2021/12/05 16:11:50;;;;;;;9.13;4.63;;;-10.20;99.90;;;;;;4823306;29;20503;-83
2021/12/05 16:14:33;;;;;;;8.98;4.18;;;-10.30;99.90;;;;;;4823139;29;20444;-83
2021/12/05 16:17:00;;;;;;;9.88;4.70;;;-10.50;99.90;;;;;;4823184;29;20412;-83
2021/12/05 16:19:30;;;;;;;10.87;4.60;;;-10.40;99.90;;;;;;4823388;29;20435;-83
2021/12/05 16:22:18;;;;;;;9.25;4.43;;;-10.50;99.90;;;;;;4834618;29;20411;-82
2021/12/05 16:24:45;;;;;;;13.13;5.53;;;-10.50;99.90;;;;;;4823130;29;20895;-82
2021/12/05 16:27:13;;;;;;;9.93;5.10;;;-10.50;99.90;;;;;;4822716;29;20571;-83
2021/12/05 16:29:40;;;;;;;11.37;4.80;;;-10.30;99.90;;;;;;4822558;29;20895;-82
2021/12/05 16:32:08;;;;;;;10.75;5.68;;;-10.50;99.90;;;;;;4817117;29;20773;-82
2021/12/05 16:34:42;;;;;;;13.10;7.28;;;-10.50;99.90;;;;;;4836973;29;20421;-82
2021/12/05 16:37:12;;;;;;;11.15;4.53;;;-10.60;99.90;;;;;;4822906;29;20469;-82
2021/12/05 16:39:48;;;;;;;11.45;5.38;;;-10.50;99.90;;;;;;4822822;29;20408;-82
2021/12/05 16:42:20;;;;;;;15.17;8.00;;;-10.50;99.90;;;;;;4821881;29;20423;-82
2021/12/05 16:44:56;;;;;;;12.30;6.10;;;-10.70;99.90;;;;;;4822779;29;20500;-83
2021/12/05 16:47:32;;;;;;;12.90;6.50;;;-10.70;99.90;;;;;;4821543;29;20498;-82
2021/12/05 16:50:01;;;;;;;13.65;6.35;;;-10.60;99.90;;;;;;4822438;29;20412;-83
2021/12/05 16:52:37;;;;;;;11.13;5.38;;;-10.40;99.90;;;;;;4822548;29;20602;-83
2021/12/05 16:55:41;;;;;;;12.18;6.10;;;-10.80;99.90;;;;;;4822740;29;20404;-83
2021/12/05 16:58:17;;;;;;;13.23;6.97;;;-10.90;99.90;;;;;;4821552;29;20451;-81
2021/12/05 17:00:52;;;;;;;12.93;6.25;;;-11.00;99.90;;;;;;4822529;29;20952;-83
2021/12/05 17:03:23;;;;;;;15.60;6.65;;;-10.90;99.90;;;;;;4822769;29;20415;-83
2021/12/05 17:05:59;;;;;;;14.23;6.95;;;-10.90;99.90;;;;;;4825693;29;20704;-82
2021/12/05 17:08:28;;;;;;;18.02;9.10;;;-10.90;99.90;;;;;;4840364;29;20428;-82
2021/12/05 17:10:59;;;;;;;16.17;7.37;;;-10.90;99.90;;;;;;4857137;29;20427;-83
2021/12/05 17:13:28;;;;;;;13.68;6.88;;;-11.10;99.90;;;;;;4856855;29;20404;-82
2021/12/05 17:16:07;;;;;;;16.07;7.87;;;-10.90;99.90;;;;;;4841778;29;20411;-83
2021/12/05 17:18:34;;;;;;;15.20;7.32;;;-10.80;99.90;;;;;;4825969;29;20778;-83
2021/12/05 17:21:21;;;;;;;16.58;8.95;;;-10.90;99.90;;;;;;4825686;29;20404;-82
2021/12/05 17:24:08;;;;;;;16.25;7.60;;;-11.10;99.90;;;;;;4826376;29;20867;-84
2021/12/05 17:26:46;;;;;;;12.50;5.97;;;-11.10;99.90;;;;;;4839291;29;20419;-83
2021/12/05 17:29:34;;;;;;;12.45;6.13;;;-11.30;99.90;;;;;;4842992;29;20418;-83
2021/12/05 17:32:11;;;;;;;13.57;6.27;;;-11.10;99.90;;;;;;4842873;29;20417;-83
2021/12/05 17:34:50;;;;;;;11.77;6.20;;;-11.00;99.90;;;;;;4843176;29;20531;-83
2021/12/05 17:37:25;;;;;;;13.55;6.38;;;-11.30;99.90;;;;;;4842929;29;20821;-83
2021/12/05 17:39:53;;;;;;;16.83;6.50;;;-11.30;99.90;;;;;;4844006;29;20463;-82
2021/12/05 17:42:25;;;;;;;14.18;6.28;;;-11.40;99.90;;;;;;4843897;29;20398;-83
2021/12/05 17:44:57;;;;;;;13.93;6.20;;;-11.30;99.90;;;;;;4843829;29;20406;-81
2021/12/05 17:47:25;;;;;;;15.38;6.53;;;-11.30;99.90;;;;;;4843849;29;20425;-84
2021/12/05 17:49:56;;;;;;;11.60;5.05;;;-11.20;99.90;;;;;;4843377;29;20410;-83
2021/12/05 17:52:26;;;;;;;11.90;4.93;;;-11.30;99.90;;;;;;4841593;29;20418;-84
2021/12/05 17:55:01;;;;;;;12.25;5.50;;;-11.50;99.90;;;;;;4834522;29;20422;-84
2021/12/05 17:57:39;;;;;;;11.38;5.38;;;-11.80;99.90;;;;;;4836992;29;20497;-83
2021/12/05 18:00:33;;;;;;;11.40;5.53;;;-11.90;99.90;;;;;;4843723;29;20406;-84
2021/12/05 18:03:08;;;;;;;12.23;5.80;;;-11.80;99.90;;;;;;4843603;29;20503;-83
2021/12/05 18:05:45;;;;;;;13.90;6.70;;;-11.80;99.90;;;;;;4841394;29;20426;-83
2021/12/05 18:08:15;;;;;;;10.98;4.82;;;-11.60;99.90;;;;;;4843189;29;20762;-83
2021/12/05 18:10:50;;;;;;;12.40;5.33;;;-12.00;99.90;;;;;;4838721;29;20428;-83
2021/12/05 18:13:23;;;;;;;11.33;5.33;;;-12.00;99.90;;;;;;4825405;29;20408;-83
2021/12/05 18:15:56;;;;;;;15.02;8.10;;;-11.80;99.90;;;;;;4838758;29;20451;-83
2021/12/05 18:18:28;;;;;;;12.20;5.38;;;-12.00;99.90;;;;;;4843401;29;20470;-82
2021/12/05 18:20:56;;;;;;;12.02;5.15;;;-12.00;99.90;;;;;;4841956;29;20433;-83
2021/12/05 18:23:24;;;;;;;10.82;4.75;;;-11.70;99.90;;;;;;4836346;29;20450;-83
2021/12/05 18:25:52;;;;;;;10.43;4.80;;;-11.90;99.90;;;;;;4853592;29;20469;-83
2021/12/05 18:28:20;;;;;;;9.55;4.80;;;-11.90;99.90;;;;;;4827532;29;20421;-82